sensor_id;sensor_type;location;lat;lon;timestamp;P1;durP1;ratioP1;P2;durP2;ratioP2
18532;SDS011;9396;51.510;11.934;2022-10-19T00:01:09;7.07;;;2.83;;
18532;SDS011;9396;51.510;11.934;2022-10-19T00:03:39;6.80;;;3.10;;
18532;SDS011;9396;51.510;11.934;2022-10-19T00:06:11;6.97;;;3.33;;
18532;SDS011;9396;51.510;11.934;2022-10-19T00:08:40;6.53;;;3.23;;
18532;SDS011;9396;51.510;11.934;2022-10-19T00:11:08;9.97;;;3.37;;
18532;SDS011;9396;51.510;11.934;2022-10-19T00:13:34;9.00;;;3.13;;
18532;SDS011;9396;51.510;11.934;2022-10-19T00:16:05;6.50;;;3.03;;
18532;SDS011;9396;51.510;11.934;2022-10-19T00:18:33;8.80;;;3.17;;
18532;SDS011;9396;51.510;11.934;2022-10-19T00:21:05;5.83;;;2.90;;
18532;SDS011;9396;51.510;11.934;2022-10-19T00:23:33;9.23;;;3.17;;
18532;SDS011;9396;51.510;11.934;2022-10-19T00:26:00;5.53;;;3.13;;
18532;SDS011;9396;51.510;11.934;2022-10-19T00:28:27;5.57;;;3.23;;
18532;SDS011;9396;51.510;11.934;2022-10-19T00:30:54;6.70;;;2.90;;
18532;SDS011;9396;51.510;11.934;2022-10-19T00:33:21;7.27;;;3.20;;
18532;SDS011;9396;51.510;11.934;2022-10-19T00:35:47;8.23;;;2.60;;
18532;SDS011;9396;51.510;11.934;2022-10-19T00:38:16;6.30;;;3.20;;
18532;SDS011;9396;51.510;11.934;2022-10-19T00:40:44;6.57;;;3.47;;
18532;SDS011;9396;51.510;11.934;2022-10-19T00:43:12;7.20;;;3.10;;
18532;SDS011;9396;51.510;11.934;2022-10-19T00:45:40;4.20;;;2.50;;
18532;SDS011;9396;51.510;11.934;2022-10-19T00:48:07;5.67;;;3.00;;
18532;SDS011;9396;51.510;11.934;2022-10-19T00:50:36;5.37;;;3.10;;
18532;SDS011;9396;51.510;11.934;2022-10-19T00:53:04;4.70;;;3.13;;
18532;SDS011;9396;51.510;11.934;2022-10-19T00:55:32;7.13;;;3.03;;
18532;SDS011;9396;51.510;11.934;2022-10-19T00:58:00;8.10;;;2.97;;
18532;SDS011;9396;51.510;11.934;2022-10-19T01:00:28;5.23;;;3.10;;
18532;SDS011;9396;51.510;11.934;2022-10-19T01:02:55;5.17;;;3.00;;
18532;SDS011;9396;51.510;11.934;2022-10-19T01:05:23;4.23;;;2.83;;
18532;SDS011;9396;51.510;11.934;2022-10-19T01:07:50;5.13;;;3.23;;
18532;SDS011;9396;51.510;11.934;2022-10-19T01:10:18;9.30;;;3.57;;
18532;SDS011;9396;51.510;11.934;2022-10-19T01:13:00;7.27;;;3.50;;
18532;SDS011;9396;51.510;11.934;2022-10-19T01:15:37;3.27;;;2.70;;
18532;SDS011;9396;51.510;11.934;2022-10-19T01:18:11;6.40;;;3.57;;
18532;SDS011;9396;51.510;11.934;2022-10-19T01:20:54;5.30;;;2.93;;
18532;SDS011;9396;51.510;11.934;2022-10-19T01:30:02;4.40;;;2.77;;
18532;SDS011;9396;51.510;11.934;2022-10-19T01:32:35;10.93;;;3.70;;
18532;SDS011;9396;51.510;11.934;2022-10-19T01:35:10;8.33;;;3.33;;
18532;SDS011;9396;51.510;11.934;2022-10-19T01:37:45;5.47;;;3.70;;
18532;SDS011;9396;51.510;11.934;2022-10-19T01:40:17;6.00;;;3.67;;
18532;SDS011;9396;51.510;11.934;2022-10-19T01:42:51;6.97;;;3.40;;
18532;SDS011;9396;51.510;11.934;2022-10-19T01:45:27;4.57;;;3.17;;
18532;SDS011;9396;51.510;11.934;2022-10-19T01:48:00;5.30;;;3.27;;
18532;SDS011;9396;51.510;11.934;2022-10-19T01:50:30;6.47;;;3.53;;
18532;SDS011;9396;51.510;11.934;2022-10-19T01:53:02;8.50;;;3.63;;
18532;SDS011;9396;51.510;11.934;2022-10-19T01:55:32;5.97;;;3.40;;
18532;SDS011;9396;51.510;11.934;2022-10-19T01:58:01;8.37;;;3.63;;
18532;SDS011;9396;51.510;11.934;2022-10-19T02:00:33;6.80;;;3.50;;
18532;SDS011;9396;51.510;11.934;2022-10-19T02:03:02;10.00;;;4.00;;
18532;SDS011;9396;51.510;11.934;2022-10-19T02:05:32;7.00;;;3.67;;
18532;SDS011;9396;51.510;11.934;2022-10-19T02:08:01;5.77;;;3.50;;
18532;SDS011;9396;51.510;11.934;2022-10-19T02:10:31;6.90;;;3.40;;
18532;SDS011;9396;51.510;11.934;2022-10-19T02:13:00;6.80;;;3.67;;
18532;SDS011;9396;51.510;11.934;2022-10-19T02:15:28;7.97;;;3.70;;
18532;SDS011;9396;51.510;11.934;2022-10-19T02:18:00;7.90;;;3.43;;
18532;SDS011;9396;51.510;11.934;2022-10-19T02:20:28;5.03;;;2.80;;
18532;SDS011;9396;51.510;11.934;2022-10-19T02:22:56;7.60;;;3.63;;
18532;SDS011;9396;51.510;11.934;2022-10-19T02:25:22;6.20;;;3.90;;
18532;SDS011;9396;51.510;11.934;2022-10-19T02:27:50;6.17;;;3.40;;
18532;SDS011;9396;51.510;11.934;2022-10-19T02:30:17;6.57;;;3.93;;
18532;SDS011;9396;51.510;11.934;2022-10-19T02:32:46;5.50;;;3.57;;
18532;SDS011;9396;51.510;11.934;2022-10-19T02:35:14;8.23;;;3.27;;
18532;SDS011;9396;51.510;11.934;2022-10-19T02:37:41;6.03;;;3.20;;
18532;SDS011;9396;51.510;11.934;2022-10-19T02:40:08;8.57;;;3.73;;
18532;SDS011;9396;51.510;11.934;2022-10-19T02:42:37;7.53;;;3.63;;
18532;SDS011;9396;51.510;11.934;2022-10-19T02:45:07;7.37;;;3.20;;
18532;SDS011;9396;51.510;11.934;2022-10-19T02:47:40;8.20;;;4.17;;
18532;SDS011;9396;51.510;11.934;2022-10-19T02:50:10;8.00;;;3.83;;
18532;SDS011;9396;51.510;11.934;2022-10-19T02:52:38;8.90;;;3.50;;
18532;SDS011;9396;51.510;11.934;2022-10-19T02:55:06;9.10;;;3.70;;
18532;SDS011;9396;51.510;11.934;2022-10-19T02:57:33;10.97;;;3.50;;
18532;SDS011;9396;51.510;11.934;2022-10-19T03:00:00;6.77;;;3.70;;
18532;SDS011;9396;51.510;11.934;2022-10-19T03:02:28;9.10;;;3.80;;
18532;SDS011;9396;51.510;11.934;2022-10-19T03:04:54;9.00;;;3.57;;
18532;SDS011;9396;51.510;11.934;2022-10-19T03:07:21;8.60;;;3.23;;
18532;SDS011;9396;51.510;11.934;2022-10-19T03:09:49;9.80;;;3.50;;
18532;SDS011;9396;51.510;11.934;2022-10-19T03:12:16;4.23;;;3.00;;
18532;SDS011;9396;51.510;11.934;2022-10-19T03:14:43;8.30;;;3.40;;
18532;SDS011;9396;51.510;11.934;2022-10-19T03:17:10;7.40;;;3.70;;
18532;SDS011;9396;51.510;11.934;2022-10-19T03:19:37;7.00;;;3.57;;
18532;SDS011;9396;51.510;11.934;2022-10-19T03:22:04;10.37;;;3.33;;
18532;SDS011;9396;51.510;11.934;2022-10-19T03:24:31;4.70;;;2.90;;
18532;SDS011;9396;51.510;11.934;2022-10-19T03:26:59;8.83;;;3.00;;
18532;SDS011;9396;51.510;11.934;2022-10-19T03:29:26;10.40;;;3.97;;
18532;SDS011;9396;51.510;11.934;2022-10-19T03:31:52;8.20;;;3.23;;
18532;SDS011;9396;51.510;11.934;2022-10-19T03:34:19;6.40;;;3.60;;
18532;SDS011;9396;51.510;11.934;2022-10-19T03:36:46;6.40;;;3.10;;
18532;SDS011;9396;51.510;11.934;2022-10-19T03:39:13;4.30;;;3.00;;
18532;SDS011;9396;51.510;11.934;2022-10-19T03:41:40;4.93;;;3.00;;
18532;SDS011;9396;51.510;11.934;2022-10-19T03:44:09;7.27;;;3.30;;
18532;SDS011;9396;51.510;11.934;2022-10-19T03:46:36;7.13;;;3.40;;
18532;SDS011;9396;51.510;11.934;2022-10-19T03:49:03;4.67;;;3.00;;
18532;SDS011;9396;51.510;11.934;2022-10-19T03:51:31;6.07;;;3.50;;
18532;SDS011;9396;51.510;11.934;2022-10-19T03:53:59;7.83;;;3.23;;
18532;SDS011;9396;51.510;11.934;2022-10-19T03:56:27;5.83;;;2.83;;
18532;SDS011;9396;51.510;11.934;2022-10-19T03:58:55;10.30;;;3.37;;
18532;SDS011;9396;51.510;11.934;2022-10-19T04:01:26;6.93;;;3.20;;
18532;SDS011;9396;51.510;11.934;2022-10-19T04:03:53;7.60;;;3.23;;
18532;SDS011;9396;51.510;11.934;2022-10-19T04:06:21;4.03;;;2.63;;
18532;SDS011;9396;51.510;11.934;2022-10-19T04:08:50;8.17;;;3.27;;
18532;SDS011;9396;51.510;11.934;2022-10-19T04:11:17;8.57;;;3.30;;
18532;SDS011;9396;51.510;11.934;2022-10-19T04:13:47;3.93;;;2.90;;
18532;SDS011;9396;51.510;11.934;2022-10-19T04:16:14;7.10;;;3.47;;
18532;SDS011;9396;51.510;11.934;2022-10-19T04:18:42;6.60;;;3.00;;
18532;SDS011;9396;51.510;11.934;2022-10-19T04:21:18;6.40;;;2.87;;
18532;SDS011;9396;51.510;11.934;2022-10-19T04:23:46;7.57;;;2.90;;
18532;SDS011;9396;51.510;11.934;2022-10-19T04:26:13;6.87;;;2.90;;
18532;SDS011;9396;51.510;11.934;2022-10-19T04:28:40;6.97;;;3.33;;
18532;SDS011;9396;51.510;11.934;2022-10-19T04:31:06;6.63;;;3.40;;
18532;SDS011;9396;51.510;11.934;2022-10-19T04:33:33;9.07;;;2.97;;
18532;SDS011;9396;51.510;11.934;2022-10-19T04:36:02;7.17;;;3.47;;
18532;SDS011;9396;51.510;11.934;2022-10-19T04:38:30;5.47;;;3.10;;
18532;SDS011;9396;51.510;11.934;2022-10-19T04:40:59;7.77;;;3.30;;
18532;SDS011;9396;51.510;11.934;2022-10-19T04:43:27;5.53;;;2.87;;
18532;SDS011;9396;51.510;11.934;2022-10-19T04:45:53;8.57;;;3.40;;
18532;SDS011;9396;51.510;11.934;2022-10-19T04:48:20;6.20;;;2.70;;
18532;SDS011;9396;51.510;11.934;2022-10-19T04:50:47;6.30;;;3.20;;
18532;SDS011;9396;51.510;11.934;2022-10-19T04:53:15;6.03;;;3.20;;
18532;SDS011;9396;51.510;11.934;2022-10-19T04:55:43;7.33;;;3.00;;
18532;SDS011;9396;51.510;11.934;2022-10-19T04:58:09;7.17;;;2.77;;
18532;SDS011;9396;51.510;11.934;2022-10-19T05:00:36;4.13;;;2.67;;
18532;SDS011;9396;51.510;11.934;2022-10-19T05:03:03;5.63;;;2.87;;
18532;SDS011;9396;51.510;11.934;2022-10-19T05:05:30;6.57;;;3.03;;
18532;SDS011;9396;51.510;11.934;2022-10-19T05:07:57;5.70;;;3.10;;
18532;SDS011;9396;51.510;11.934;2022-10-19T05:10:25;3.57;;;2.73;;
18532;SDS011;9396;51.510;11.934;2022-10-19T05:12:51;6.23;;;2.93;;
18532;SDS011;9396;51.510;11.934;2022-10-19T05:15:18;4.87;;;2.80;;
18532;SDS011;9396;51.510;11.934;2022-10-19T05:17:45;7.27;;;2.90;;
18532;SDS011;9396;51.510;11.934;2022-10-19T05:20:12;4.03;;;3.20;;
18532;SDS011;9396;51.510;11.934;2022-10-19T05:22:38;4.23;;;2.73;;
18532;SDS011;9396;51.510;11.934;2022-10-19T05:25:05;4.60;;;3.07;;
18532;SDS011;9396;51.510;11.934;2022-10-19T05:27:34;7.70;;;3.20;;
18532;SDS011;9396;51.510;11.934;2022-10-19T05:30:01;8.27;;;3.00;;
18532;SDS011;9396;51.510;11.934;2022-10-19T05:32:27;5.63;;;3.07;;
18532;SDS011;9396;51.510;11.934;2022-10-19T05:34:54;6.87;;;3.10;;
18532;SDS011;9396;51.510;11.934;2022-10-19T05:37:21;9.33;;;3.07;;
18532;SDS011;9396;51.510;11.934;2022-10-19T05:39:47;4.70;;;2.90;;
18532;SDS011;9396;51.510;11.934;2022-10-19T05:42:14;7.33;;;3.10;;
18532;SDS011;9396;51.510;11.934;2022-10-19T05:44:42;5.37;;;2.70;;
18532;SDS011;9396;51.510;11.934;2022-10-19T05:47:08;7.17;;;3.00;;
18532;SDS011;9396;51.510;11.934;2022-10-19T05:49:35;4.77;;;2.83;;
18532;SDS011;9396;51.510;11.934;2022-10-19T05:52:01;6.43;;;3.37;;
18532;SDS011;9396;51.510;11.934;2022-10-19T05:54:28;6.00;;;3.00;;
18532;SDS011;9396;51.510;11.934;2022-10-19T05:56:55;8.50;;;3.17;;
18532;SDS011;9396;51.510;11.934;2022-10-19T05:59:22;5.27;;;3.30;;
18532;SDS011;9396;51.510;11.934;2022-10-19T06:01:50;7.93;;;4.00;;
18532;SDS011;9396;51.510;11.934;2022-10-19T06:04:17;8.93;;;2.93;;
18532;SDS011;9396;51.510;11.934;2022-10-19T06:06:43;7.30;;;3.30;;
18532;SDS011;9396;51.510;11.934;2022-10-19T06:09:10;7.40;;;3.00;;
18532;SDS011;9396;51.510;11.934;2022-10-19T06:11:38;8.07;;;3.27;;
18532;SDS011;9396;51.510;11.934;2022-10-19T06:14:06;7.83;;;3.10;;
18532;SDS011;9396;51.510;11.934;2022-10-19T06:16:36;7.03;;;3.27;;
18532;SDS011;9396;51.510;11.934;2022-10-19T06:19:04;6.03;;;2.97;;
18532;SDS011;9396;51.510;11.934;2022-10-19T06:21:32;6.00;;;3.20;;
18532;SDS011;9396;51.510;11.934;2022-10-19T06:24:00;4.20;;;3.27;;
18532;SDS011;9396;51.510;11.934;2022-10-19T06:26:29;7.27;;;3.20;;
18532;SDS011;9396;51.510;11.934;2022-10-19T06:28:57;6.00;;;3.23;;
18532;SDS011;9396;51.510;11.934;2022-10-19T06:31:25;6.60;;;3.00;;
18532;SDS011;9396;51.510;11.934;2022-10-19T06:33:52;5.27;;;3.00;;
18532;SDS011;9396;51.510;11.934;2022-10-19T06:36:20;5.17;;;2.90;;
18532;SDS011;9396;51.510;11.934;2022-10-19T06:38:48;6.63;;;3.37;;
18532;SDS011;9396;51.510;11.934;2022-10-19T06:41:15;4.43;;;2.93;;
18532;SDS011;9396;51.510;11.934;2022-10-19T06:43:42;8.67;;;2.80;;
18532;SDS011;9396;51.510;11.934;2022-10-19T06:46:09;4.67;;;2.70;;
18532;SDS011;9396;51.510;11.934;2022-10-19T06:48:39;6.97;;;2.80;;
18532;SDS011;9396;51.510;11.934;2022-10-19T06:51:05;7.13;;;2.90;;
18532;SDS011;9396;51.510;11.934;2022-10-19T06:53:34;4.93;;;2.50;;
18532;SDS011;9396;51.510;11.934;2022-10-19T06:56:02;5.57;;;2.30;;
18532;SDS011;9396;51.510;11.934;2022-10-19T06:58:33;6.80;;;2.57;;
18532;SDS011;9396;51.510;11.934;2022-10-19T07:01:00;3.47;;;1.93;;
18532;SDS011;9396;51.510;11.934;2022-10-19T07:03:28;5.33;;;2.40;;
18532;SDS011;9396;51.510;11.934;2022-10-19T07:05:55;4.43;;;1.90;;
18532;SDS011;9396;51.510;11.934;2022-10-19T07:08:23;4.53;;;2.23;;
18532;SDS011;9396;51.510;11.934;2022-10-19T07:10:52;5.33;;;2.10;;
18532;SDS011;9396;51.510;11.934;2022-10-19T07:13:20;7.27;;;2.40;;
18532;SDS011;9396;51.510;11.934;2022-10-19T07:15:47;4.13;;;2.47;;
18532;SDS011;9396;51.510;11.934;2022-10-19T07:18:14;6.03;;;2.47;;
18532;SDS011;9396;51.510;11.934;2022-10-19T07:20:41;4.53;;;2.30;;
18532;SDS011;9396;51.510;11.934;2022-10-19T07:23:08;3.90;;;2.40;;
18532;SDS011;9396;51.510;11.934;2022-10-19T07:25:35;8.20;;;2.60;;
18532;SDS011;9396;51.510;11.934;2022-10-19T07:28:03;9.03;;;2.83;;
18532;SDS011;9396;51.510;11.934;2022-10-19T07:30:29;5.50;;;2.40;;
18532;SDS011;9396;51.510;11.934;2022-10-19T07:32:56;4.37;;;2.20;;
18532;SDS011;9396;51.510;11.934;2022-10-19T07:35:23;10.90;;;2.93;;
18532;SDS011;9396;51.510;11.934;2022-10-19T07:37:49;5.60;;;2.43;;
18532;SDS011;9396;51.510;11.934;2022-10-19T07:40:16;4.93;;;2.23;;
18532;SDS011;9396;51.510;11.934;2022-10-19T07:42:43;4.43;;;2.17;;
18532;SDS011;9396;51.510;11.934;2022-10-19T07:45:11;8.67;;;2.93;;
18532;SDS011;9396;51.510;11.934;2022-10-19T07:47:37;3.77;;;2.00;;
18532;SDS011;9396;51.510;11.934;2022-10-19T07:50:04;6.57;;;2.03;;
18532;SDS011;9396;51.510;11.934;2022-10-19T07:52:31;5.30;;;2.00;;
18532;SDS011;9396;51.510;11.934;2022-10-19T07:54:58;5.53;;;1.83;;
18532;SDS011;9396;51.510;11.934;2022-10-19T07:57:24;9.77;;;2.20;;
18532;SDS011;9396;51.510;11.934;2022-10-19T07:59:51;7.30;;;2.30;;
18532;SDS011;9396;51.510;11.934;2022-10-19T08:02:19;5.87;;;2.70;;
18532;SDS011;9396;51.510;11.934;2022-10-19T08:04:46;4.73;;;2.57;;
18532;SDS011;9396;51.510;11.934;2022-10-19T08:07:12;6.17;;;2.80;;
18532;SDS011;9396;51.510;11.934;2022-10-19T08:09:39;7.57;;;2.57;;
18532;SDS011;9396;51.510;11.934;2022-10-19T08:12:05;8.93;;;2.80;;
18532;SDS011;9396;51.510;11.934;2022-10-19T08:14:32;7.67;;;2.57;;
18532;SDS011;9396;51.510;11.934;2022-10-19T08:16:59;6.33;;;2.53;;
18532;SDS011;9396;51.510;11.934;2022-10-19T08:19:28;6.87;;;2.90;;
18532;SDS011;9396;51.510;11.934;2022-10-19T08:21:55;4.20;;;2.60;;
18532;SDS011;9396;51.510;11.934;2022-10-19T08:24:21;4.43;;;2.57;;
18532;SDS011;9396;51.510;11.934;2022-10-19T08:26:48;5.57;;;2.50;;
18532;SDS011;9396;51.510;11.934;2022-10-19T08:29:15;6.23;;;3.17;;
18532;SDS011;9396;51.510;11.934;2022-10-19T08:31:44;7.77;;;2.93;;
18532;SDS011;9396;51.510;11.934;2022-10-19T08:34:12;7.77;;;2.83;;
18532;SDS011;9396;51.510;11.934;2022-10-19T08:36:41;6.33;;;2.70;;
18532;SDS011;9396;51.510;11.934;2022-10-19T08:39:08;5.47;;;2.40;;
18532;SDS011;9396;51.510;11.934;2022-10-19T08:41:41;9.53;;;2.70;;
18532;SDS011;9396;51.510;11.934;2022-10-19T08:44:23;10.03;;;2.10;;
18532;SDS011;9396;51.510;11.934;2022-10-19T08:47:01;6.97;;;1.97;;
18532;SDS011;9396;51.510;11.934;2022-10-19T08:49:36;4.43;;;1.87;;
18532;SDS011;9396;51.510;11.934;2022-10-19T08:52:05;7.93;;;1.93;;
18532;SDS011;9396;51.510;11.934;2022-10-19T08:54:39;3.20;;;1.63;;
18532;SDS011;9396;51.510;11.934;2022-10-19T08:57:12;2.63;;;1.43;;
18532;SDS011;9396;51.510;11.934;2022-10-19T08:59:45;6.37;;;1.60;;
18532;SDS011;9396;51.510;11.934;2022-10-19T09:02:20;3.43;;;1.80;;
18532;SDS011;9396;51.510;11.934;2022-10-19T09:05:00;4.20;;;1.67;;
18532;SDS011;9396;51.510;11.934;2022-10-19T09:07:33;6.40;;;2.10;;
18532;SDS011;9396;51.510;11.934;2022-10-19T09:10:10;4.60;;;2.20;;
18532;SDS011;9396;51.510;11.934;2022-10-19T09:12:44;7.63;;;2.43;;
18532;SDS011;9396;51.510;11.934;2022-10-19T09:15:17;5.80;;;2.30;;
18532;SDS011;9396;51.510;11.934;2022-10-19T09:17:45;4.13;;;1.60;;
18532;SDS011;9396;51.510;11.934;2022-10-19T09:20:13;5.70;;;2.10;;
18532;SDS011;9396;51.510;11.934;2022-10-19T09:22:43;4.13;;;1.40;;
18532;SDS011;9396;51.510;11.934;2022-10-19T09:25:12;6.43;;;1.90;;
18532;SDS011;9396;51.510;11.934;2022-10-19T09:27:44;4.17;;;1.30;;
18532;SDS011;9396;51.510;11.934;2022-10-19T09:30:14;5.40;;;1.27;;
18532;SDS011;9396;51.510;11.934;2022-10-19T09:32:44;3.83;;;1.30;;
18532;SDS011;9396;51.510;11.934;2022-10-19T09:35:19;7.83;;;2.27;;
18532;SDS011;9396;51.510;11.934;2022-10-19T09:37:52;6.00;;;2.10;;
18532;SDS011;9396;51.510;11.934;2022-10-19T09:40:21;3.30;;;1.80;;
18532;SDS011;9396;51.510;11.934;2022-10-19T09:42:49;5.17;;;2.20;;
18532;SDS011;9396;51.510;11.934;2022-10-19T09:45:25;8.70;;;1.93;;
18532;SDS011;9396;51.510;11.934;2022-10-19T09:47:59;4.47;;;1.97;;
18532;SDS011;9396;51.510;11.934;2022-10-19T09:50:28;3.93;;;1.67;;
18532;SDS011;9396;51.510;11.934;2022-10-19T09:52:57;4.93;;;1.70;;
18532;SDS011;9396;51.510;11.934;2022-10-19T09:55:29;4.37;;;1.70;;
18532;SDS011;9396;51.510;11.934;2022-10-19T09:58:03;6.20;;;1.70;;
18532;SDS011;9396;51.510;11.934;2022-10-19T10:00:41;7.83;;;1.70;;
18532;SDS011;9396;51.510;11.934;2022-10-19T10:03:20;4.33;;;1.77;;
18532;SDS011;9396;51.510;11.934;2022-10-19T10:05:49;3.83;;;1.40;;
18532;SDS011;9396;51.510;11.934;2022-10-19T10:08:18;3.87;;;1.30;;
18532;SDS011;9396;51.510;11.934;2022-10-19T10:10:47;6.17;;;2.10;;
18532;SDS011;9396;51.510;11.934;2022-10-19T10:13:23;3.57;;;1.43;;
18532;SDS011;9396;51.510;11.934;2022-10-19T10:15:53;3.53;;;1.50;;
18532;SDS011;9396;51.510;11.934;2022-10-19T10:18:22;5.93;;;1.83;;
18532;SDS011;9396;51.510;11.934;2022-10-19T10:20:57;2.43;;;1.63;;
18532;SDS011;9396;51.510;11.934;2022-10-19T10:23:28;5.03;;;1.80;;
18532;SDS011;9396;51.510;11.934;2022-10-19T10:25:56;5.20;;;2.33;;
18532;SDS011;9396;51.510;11.934;2022-10-19T10:28:25;4.83;;;1.90;;
18532;SDS011;9396;51.510;11.934;2022-10-19T10:30:53;2.97;;;1.43;;
18532;SDS011;9396;51.510;11.934;2022-10-19T10:33:26;5.40;;;1.90;;
18532;SDS011;9396;51.510;11.934;2022-10-19T10:35:55;7.13;;;1.87;;
18532;SDS011;9396;51.510;11.934;2022-10-19T10:38:31;3.97;;;1.93;;
18532;SDS011;9396;51.510;11.934;2022-10-19T10:41:00;6.33;;;1.67;;
18532;SDS011;9396;51.510;11.934;2022-10-19T10:43:32;7.60;;;2.03;;
18532;SDS011;9396;51.510;11.934;2022-10-19T10:46:02;6.70;;;1.83;;
18532;SDS011;9396;51.510;11.934;2022-10-19T10:48:34;5.67;;;1.97;;
18532;SDS011;9396;51.510;11.934;2022-10-19T10:51:05;2.17;;;1.47;;
18532;SDS011;9396;51.510;11.934;2022-10-19T10:53:37;6.03;;;1.60;;
18532;SDS011;9396;51.510;11.934;2022-10-19T10:56:18;7.53;;;1.53;;
18532;SDS011;9396;51.510;11.934;2022-10-19T10:58:47;2.73;;;1.43;;
18532;SDS011;9396;51.510;11.934;2022-10-19T11:01:20;3.43;;;1.30;;
18532;SDS011;9396;51.510;11.934;2022-10-19T11:03:50;3.23;;;1.73;;
18532;SDS011;9396;51.510;11.934;2022-10-19T11:06:21;4.80;;;1.40;;
18532;SDS011;9396;51.510;11.934;2022-10-19T11:08:53;9.70;;;1.73;;
18532;SDS011;9396;51.510;11.934;2022-10-19T11:11:29;2.80;;;1.50;;
18532;SDS011;9396;51.510;11.934;2022-10-19T11:14:13;4.93;;;1.57;;
18532;SDS011;9396;51.510;11.934;2022-10-19T11:16:48;3.63;;;1.57;;
18532;SDS011;9396;51.510;11.934;2022-10-19T11:19:17;2.93;;;1.40;;
18532;SDS011;9396;51.510;11.934;2022-10-19T11:21:49;2.80;;;1.43;;
18532;SDS011;9396;51.510;11.934;2022-10-19T11:24:27;5.83;;;1.37;;
18532;SDS011;9396;51.510;11.934;2022-10-19T11:27:03;3.47;;;1.17;;
18532;SDS011;9396;51.510;11.934;2022-10-19T11:29:46;6.23;;;1.20;;
18532;SDS011;9396;51.510;11.934;2022-10-19T11:32:24;4.43;;;1.00;;
18532;SDS011;9396;51.510;11.934;2022-10-19T11:34:59;1.83;;;0.83;;
18532;SDS011;9396;51.510;11.934;2022-10-19T11:37:46;5.10;;;1.00;;
18532;SDS011;9396;51.510;11.934;2022-10-19T11:40:25;2.90;;;0.80;;
18532;SDS011;9396;51.510;11.934;2022-10-19T11:43:00;3.17;;;0.90;;
18532;SDS011;9396;51.510;11.934;2022-10-19T11:45:34;4.80;;;1.03;;
18532;SDS011;9396;51.510;11.934;2022-10-19T11:50:58;4.03;;;1.00;;
18532;SDS011;9396;51.510;11.934;2022-10-19T11:53:30;4.93;;;1.20;;
18532;SDS011;9396;51.510;11.934;2022-10-19T11:56:07;1.70;;;0.80;;
18532;SDS011;9396;51.510;11.934;2022-10-19T11:58:47;4.13;;;0.87;;
18532;SDS011;9396;51.510;11.934;2022-10-19T12:01:32;3.93;;;1.07;;
18532;SDS011;9396;51.510;11.934;2022-10-19T12:04:28;6.17;;;1.00;;
18532;SDS011;9396;51.510;11.934;2022-10-19T12:07:08;1.30;;;0.70;;
18532;SDS011;9396;51.510;11.934;2022-10-19T12:09:47;1.93;;;0.70;;
18532;SDS011;9396;51.510;11.934;2022-10-19T12:12:25;2.70;;;0.80;;
18532;SDS011;9396;51.510;11.934;2022-10-19T12:15:00;4.60;;;1.00;;
18532;SDS011;9396;51.510;11.934;2022-10-19T12:17:38;2.93;;;0.87;;
18532;SDS011;9396;51.510;11.934;2022-10-19T12:20:13;2.87;;;1.10;;
18532;SDS011;9396;51.510;11.934;2022-10-19T12:22:45;2.33;;;1.07;;
18532;SDS011;9396;51.510;11.934;2022-10-19T12:25:13;5.23;;;1.20;;
18532;SDS011;9396;51.510;11.934;2022-10-19T12:27:43;3.53;;;1.10;;
18532;SDS011;9396;51.510;11.934;2022-10-19T12:30:15;3.03;;;0.83;;
18532;SDS011;9396;51.510;11.934;2022-10-19T12:32:46;2.10;;;0.80;;
18532;SDS011;9396;51.510;11.934;2022-10-19T12:35:21;6.53;;;1.10;;
18532;SDS011;9396;51.510;11.934;2022-10-19T12:37:57;3.30;;;0.80;;
18532;SDS011;9396;51.510;11.934;2022-10-19T12:40:31;3.17;;;1.10;;
18532;SDS011;9396;51.510;11.934;2022-10-19T12:43:06;1.73;;;0.83;;
18532;SDS011;9396;51.510;11.934;2022-10-19T12:45:35;4.90;;;1.07;;
18532;SDS011;9396;51.510;11.934;2022-10-19T12:48:16;5.90;;;1.13;;
18532;SDS011;9396;51.510;11.934;2022-10-19T12:50:58;3.83;;;1.10;;
18532;SDS011;9396;51.510;11.934;2022-10-19T12:53:37;3.63;;;0.97;;
18532;SDS011;9396;51.510;11.934;2022-10-19T12:56:06;6.30;;;1.00;;
18532;SDS011;9396;51.510;11.934;2022-10-19T12:58:43;3.70;;;1.20;;
18532;SDS011;9396;51.510;11.934;2022-10-19T13:01:15;2.77;;;0.93;;
18532;SDS011;9396;51.510;11.934;2022-10-19T13:03:45;2.03;;;0.80;;
18532;SDS011;9396;51.510;11.934;2022-10-19T13:06:14;4.17;;;0.90;;
18532;SDS011;9396;51.510;11.934;2022-10-19T13:08:45;1.60;;;0.73;;
18532;SDS011;9396;51.510;11.934;2022-10-19T13:11:19;2.73;;;0.90;;
18532;SDS011;9396;51.510;11.934;2022-10-19T13:13:55;1.67;;;0.50;;
18532;SDS011;9396;51.510;11.934;2022-10-19T13:16:31;2.77;;;0.80;;
18532;SDS011;9396;51.510;11.934;2022-10-19T13:19:18;3.93;;;1.10;;
18532;SDS011;9396;51.510;11.934;2022-10-19T13:21:50;2.30;;;0.93;;
18532;SDS011;9396;51.510;11.934;2022-10-19T13:24:34;1.30;;;0.70;;
18532;SDS011;9396;51.510;11.934;2022-10-19T13:27:22;2.77;;;1.00;;
18532;SDS011;9396;51.510;11.934;2022-10-19T13:29:59;6.30;;;0.90;;
18532;SDS011;9396;51.510;11.934;2022-10-19T13:32:36;4.67;;;1.10;;
18532;SDS011;9396;51.510;11.934;2022-10-19T13:35:24;8.20;;;1.30;;
18532;SDS011;9396;51.510;11.934;2022-10-19T13:41:00;2.73;;;0.80;;
18532;SDS011;9396;51.510;11.934;2022-10-19T13:43:30;2.60;;;0.90;;
18532;SDS011;9396;51.510;11.934;2022-10-19T13:46:02;3.97;;;1.00;;
18532;SDS011;9396;51.510;11.934;2022-10-19T13:48:36;4.70;;;1.50;;
18532;SDS011;9396;51.510;11.934;2022-10-19T13:51:15;4.83;;;0.97;;
18532;SDS011;9396;51.510;11.934;2022-10-19T13:53:48;3.53;;;0.83;;
18532;SDS011;9396;51.510;11.934;2022-10-19T13:56:27;4.30;;;0.83;;
18532;SDS011;9396;51.510;11.934;2022-10-19T13:59:06;2.17;;;0.73;;
18532;SDS011;9396;51.510;11.934;2022-10-19T14:01:52;3.80;;;0.70;;
18532;SDS011;9396;51.510;11.934;2022-10-19T14:04:29;1.27;;;0.60;;
18532;SDS011;9396;51.510;11.934;2022-10-19T14:07:09;1.30;;;0.50;;
18532;SDS011;9396;51.510;11.934;2022-10-19T14:12:33;1.07;;;0.37;;
18532;SDS011;9396;51.510;11.934;2022-10-19T14:15:10;2.10;;;0.43;;
18532;SDS011;9396;51.510;11.934;2022-10-19T14:17:46;6.43;;;0.60;;
18532;SDS011;9396;51.510;11.934;2022-10-19T14:20:23;4.50;;;0.77;;
18532;SDS011;9396;51.510;11.934;2022-10-19T14:22:52;1.13;;;0.47;;
18532;SDS011;9396;51.510;11.934;2022-10-19T14:25:19;4.23;;;0.83;;
18532;SDS011;9396;51.510;11.934;2022-10-19T14:27:50;4.93;;;0.80;;
18532;SDS011;9396;51.510;11.934;2022-10-19T14:30:25;2.63;;;0.70;;
18532;SDS011;9396;51.510;11.934;2022-10-19T14:32:56;2.07;;;0.67;;
18532;SDS011;9396;51.510;11.934;2022-10-19T14:35:26;2.10;;;0.80;;
18532;SDS011;9396;51.510;11.934;2022-10-19T14:37:54;1.23;;;0.60;;
18532;SDS011;9396;51.510;11.934;2022-10-19T14:40:22;1.93;;;0.80;;
18532;SDS011;9396;51.510;11.934;2022-10-19T14:42:52;3.03;;;0.50;;
18532;SDS011;9396;51.510;11.934;2022-10-19T14:45:19;3.37;;;0.90;;
18532;SDS011;9396;51.510;11.934;2022-10-19T14:47:59;2.13;;;1.17;;
18532;SDS011;9396;51.510;11.934;2022-10-19T14:50:29;2.63;;;0.67;;
18532;SDS011;9396;51.510;11.934;2022-10-19T14:53:01;4.47;;;1.07;;
18532;SDS011;9396;51.510;11.934;2022-10-19T14:55:38;4.30;;;0.80;;
18532;SDS011;9396;51.510;11.934;2022-10-19T14:58:08;3.60;;;0.90;;
18532;SDS011;9396;51.510;11.934;2022-10-19T15:00:38;5.37;;;1.00;;
18532;SDS011;9396;51.510;11.934;2022-10-19T15:03:08;2.20;;;0.70;;
18532;SDS011;9396;51.510;11.934;2022-10-19T15:05:39;5.00;;;3.23;;
18532;SDS011;9396;51.510;11.934;2022-10-19T15:08:15;4.00;;;2.83;;
18532;SDS011;9396;51.510;11.934;2022-10-19T15:10:48;1.97;;;0.87;;
18532;SDS011;9396;51.510;11.934;2022-10-19T15:13:17;2.67;;;0.90;;
18532;SDS011;9396;51.510;11.934;2022-10-19T15:15:49;3.27;;;1.00;;
18532;SDS011;9396;51.510;11.934;2022-10-19T15:18:20;4.30;;;0.97;;
18532;SDS011;9396;51.510;11.934;2022-10-19T15:20:58;2.50;;;0.87;;
18532;SDS011;9396;51.510;11.934;2022-10-19T15:23:32;2.80;;;0.80;;